FVGR weather

Grand Reef Airport
Mutare, Manicaland Province, Zimbabwe

Public forecast

Using degrees Celsius for public forecast. Weather courtesy of forecast.io.

METAR (pilot weather report)

Closest report is Chimoio Airport, 56.5 nm (104.6 km) E. Retrieved 2019/05/26 17:00 UTC (5 minutes ago):

FQCH 261700Z /////KT 9999 FEW020 16/13 Q1023

TAF (pilot weather forecast)

Closest forecast is Chimoio Airport, 56.5 nm (104.6 km) E. Retrieved 2019/05/26 12:00 UTC (5 hours ago):

TAF FQCH 261000Z 2612/2712 16010KT 9999 BKN020 TX22/2613Z TN13/2703Z BECMG 2700/2702 08008KT FEW025